createdAt,value
2023-02-27T00:02:18.003Z,102689.00
2023-02-27T00:05:03.530Z,102711.41
2023-02-27T00:07:48.939Z,102708.84
2023-02-27T00:10:34.199Z,102708.81
2023-02-27T00:13:19.797Z,102664.03
2023-02-27T00:16:05.470Z,102683.84
2023-02-27T00:18:50.685Z,102694.19
2023-02-27T00:21:36.955Z,102684.69
2023-02-27T00:24:22.655Z,102707.94
2023-02-27T00:27:07.691Z,102713.13
2023-02-27T00:29:52.865Z,102709.69
2023-02-27T00:32:38.275Z,102711.41
2023-02-27T00:35:23.365Z,102719.16
2023-02-27T00:38:08.570Z,102715.69
2023-02-27T00:40:54.094Z,102712.25
2023-02-27T00:43:39.177Z,102710.53
2023-02-27T00:46:24.616Z,102694.19
2023-02-27T00:49:09.762Z,102709.66
2023-02-27T00:51:54.630Z,102707.97
2023-02-27T00:54:39.581Z,102714.84
2023-02-27T00:57:24.950Z,102714.84
2023-02-27T01:00:11.047Z,102716.59
2023-02-27T01:02:56.177Z,102718.28
2023-02-27T01:05:41.118Z,102721.72
2023-02-27T01:08:26.473Z,102707.94
2023-02-27T01:11:12.067Z,102717.41
2023-02-27T01:13:58.525Z,102717.44
2023-02-27T01:16:44.016Z,102726.88
2023-02-27T01:19:29.328Z,102724.31
2023-02-27T01:22:14.696Z,102722.59
2023-02-27T01:25:00.101Z,102701.06
2023-02-27T01:27:45.052Z,102714.84
2023-02-27T01:30:30.280Z,102689.00
2023-02-27T01:33:15.368Z,102684.72
2023-02-27T01:36:00.934Z,102691.59
2023-02-27T01:38:46.089Z,102696.75
2023-02-27T01:41:31.782Z,102692.47
2023-02-27T01:44:17.056Z,102689.00
2023-02-27T01:47:02.295Z,102688.16
2023-02-27T01:49:47.365Z,102681.28
2023-02-27T01:52:34.448Z,102671.78
2023-02-27T01:55:20.257Z,102681.25
2023-02-27T01:58:09.894Z,102676.94
2023-02-27T02:00:55.487Z,102661.47
2023-02-27T02:04:02.152Z,102683.81
2023-02-27T02:06:52.921Z,102663.19
2023-02-27T02:09:43.916Z,102684.72
2023-02-27T02:12:34.094Z,102663.19
2023-02-27T02:15:25.600Z,102682.13
2023-02-27T02:18:20.021Z,102673.50
2023-02-27T02:21:36.654Z,102672.66
2023-02-27T02:24:59.408Z,102670.06
2023-02-27T02:27:56.658Z,102679.53
2023-02-27T02:31:06.811Z,102671.78
2023-02-27T02:34:21.550Z,102654.56
2023-02-27T02:37:48.133Z,102661.44
2023-02-27T02:40:43.714Z,102658.88
2023-02-27T02:44:01.451Z,102660.59
2023-02-27T02:47:14.200Z,102663.19
2023-02-27T02:50:17.212Z,102661.44
2023-02-27T02:53:12.713Z,102664.03
2023-02-27T02:56:20.917Z,102666.63
2023-02-27T02:59:29.024Z,102676.94
2023-02-27T03:02:30.758Z,102645.97
2023-02-27T03:05:24.343Z,102672.66
2023-02-27T03:08:15.062Z,102674.38
2023-02-27T03:11:03.847Z,102678.69
2023-02-27T03:14:00.025Z,102677.81
2023-02-27T03:16:50.254Z,102653.69
2023-02-27T03:19:57.698Z,102684.69
2023-02-27T03:22:47.391Z,102680.38
2023-02-27T03:25:35.431Z,102679.53
2023-02-27T03:28:27.165Z,102672.63
2023-02-27T03:31:47.666Z,102683.84
2023-02-27T03:34:35.354Z,102677.81
2023-02-27T03:37:30.154Z,102684.69
2023-02-27T03:40:27.144Z,102681.25
2023-02-27T03:43:23.163Z,102684.72
2023-02-27T03:46:14.447Z,102680.41
2023-02-27T03:48:59.506Z,102678.66
2023-02-27T03:51:44.996Z,102675.22
2023-02-27T03:54:36.255Z,102679.50
2023-02-27T03:57:21.730Z,102674.34
2023-02-27T04:00:09.994Z,102669.19
2023-02-27T04:02:58.545Z,102690.69
2023-02-27T04:05:43.488Z,102678.66
2023-02-27T04:08:50.536Z,102686.38
2023-02-27T04:11:45.410Z,102680.38
2023-02-27T04:14:59.659Z,102690.72
2023-02-27T04:18:01.300Z,102699.31
2023-02-27T04:21:04.638Z,102701.03
2023-02-27T04:24:02.256Z,102692.41
2023-02-27T04:26:53.355Z,102685.50
2023-02-27T04:29:55.617Z,102701.03
2023-02-27T04:32:49.804Z,102697.56
2023-02-27T04:35:37.769Z,102701.03
2023-02-27T04:38:46.262Z,102707.03
2023-02-27T04:41:40.445Z,102709.63
2023-02-27T04:44:27.285Z,102698.44
2023-02-27T04:47:14.288Z,102690.66
2023-02-27T04:50:15.501Z,102688.09
2023-02-27T04:53:25.810Z,102691.53
2023-02-27T04:56:17.434Z,102665.69
2023-02-27T04:59:16.220Z,102679.47
2023-02-27T05:02:32.836Z,102692.38
2023-02-27T05:05:25.486Z,102681.19
2023-02-27T05:08:29.896Z,102696.69
2023-02-27T05:11:42.803Z,102694.97
2023-02-27T05:14:39.806Z,102695.81
2023-02-27T05:17:33.016Z,102683.75
2023-02-27T05:20:18.785Z,102657.03
2023-02-27T05:23:16.379Z,102695.81
2023-02-27T05:26:16.196Z,102684.56
2023-02-27T05:29:27.276Z,102705.28
2023-02-27T05:32:31.033Z,102684.59
2023-02-27T05:35:29.963Z,102683.66
2023-02-27T05:38:21.909Z,102683.66
2023-02-27T05:41:13.645Z,102701.75
2023-02-27T05:44:16.003Z,102705.19
2023-02-27T05:47:16.822Z,102704.38
2023-02-27T05:50:04.846Z,102699.22
2023-02-27T05:52:52.756Z,102710.38
2023-02-27T05:55:50.578Z,102685.38
2023-02-27T05:58:41.063Z,102707.78
2023-02-27T06:01:26.168Z,102669.88
2023-02-27T06:04:11.441Z,102715.53
2023-02-27T06:06:57.897Z,102710.38
2023-02-27T06:09:45.295Z,102691.41
2023-02-27T06:12:30.574Z,102727.59
2023-02-27T06:15:17.386Z,102729.31
2023-02-27T06:18:02.342Z,102739.66
2023-02-27T06:20:48.172Z,102721.56
2023-02-27T06:23:33.387Z,102727.59
2023-02-27T06:26:18.825Z,102737.94
2023-02-27T06:29:04.121Z,102743.13
2023-02-27T06:31:49.286Z,102750.88
2023-02-27T06:34:34.198Z,102730.19
2023-02-27T06:37:19.530Z,102756.03
2023-02-27T06:40:14.479Z,102736.22
2023-02-27T06:42:59.728Z,102750.06
2023-02-27T06:45:45.003Z,102741.44
2023-02-27T06:48:30.174Z,102741.38
2023-02-27T06:51:15.484Z,102756.06
2023-02-27T06:54:00.759Z,102763.78
2023-02-27T06:56:46.087Z,102762.09
2023-02-27T06:59:31.019Z,102762.09
2023-02-27T07:02:17.263Z,102769.81
2023-02-27T07:05:07.896Z,102764.63
2023-02-27T07:07:53.467Z,102774.13
2023-02-27T07:10:39.965Z,102768.94
2023-02-27T07:13:25.255Z,102775.88
2023-02-27T07:16:10.450Z,102777.56
2023-02-27T07:18:55.610Z,102754.28
2023-02-27T07:21:40.608Z,102779.28
2023-02-27T07:24:25.950Z,102781.03
2023-02-27T07:27:11.240Z,102775.03
2023-02-27T07:29:56.681Z,102761.22
2023-02-27T07:32:41.650Z,102772.44
2023-02-27T07:35:26.825Z,102757.75
2023-02-27T07:38:12.152Z,102799.09
2023-02-27T07:40:58.662Z,102801.72
2023-02-27T07:43:43.697Z,102777.63
2023-02-27T07:46:29.318Z,102784.53
2023-02-27T07:49:14.787Z,102810.38
2023-02-27T07:52:00.024Z,102806.94
2023-02-27T07:54:44.787Z,102798.34
2023-02-27T07:57:29.684Z,102798.38
2023-02-27T08:00:15.250Z,102799.25
2023-02-27T08:03:00.573Z,102774.25
2023-02-27T08:05:45.820Z,102797.53
2023-02-27T08:08:31.091Z,102790.66
2023-02-27T08:11:16.176Z,102804.44
2023-02-27T08:14:02.270Z,102798.41
2023-02-27T08:16:47.763Z,102782.91
2023-02-27T08:19:33.011Z,102813.09
2023-02-27T08:22:18.272Z,102811.34
2023-02-27T08:25:06.901Z,102789.81
2023-02-27T08:27:52.154Z,102811.38
2023-02-27T08:30:37.349Z,102813.97
2023-02-27T08:33:23.303Z,102803.56
2023-02-27T08:36:08.477Z,102814.75
2023-02-27T08:38:53.549Z,102805.25
2023-02-27T08:41:38.643Z,102784.53
2023-02-27T08:44:24.225Z,102789.66
2023-02-27T08:47:09.322Z,102796.53
2023-02-27T08:49:54.497Z,102797.34
2023-02-27T08:52:39.606Z,102802.44
2023-02-27T08:55:24.967Z,102796.38
2023-02-27T08:58:10.725Z,102808.41
2023-02-27T09:00:55.880Z,102806.63
2023-02-27T09:03:41.488Z,102817.84
2023-02-27T09:06:26.715Z,102809.97
2023-02-27T09:09:12.049Z,102816.84
2023-02-27T09:11:57.464Z,102819.41
2023-02-27T09:14:42.717Z,102819.31
2023-02-27T09:17:28.012Z,102799.41
2023-02-27T09:20:12.983Z,102824.28
2023-02-27T09:22:59.317Z,102814.78
2023-02-27T09:25:47.285Z,102817.41
2023-02-27T09:28:33.074Z,102817.31
2023-02-27T09:31:18.332Z,102803.53
2023-02-27T09:34:03.565Z,102823.25
2023-02-27T09:36:48.778Z,102801.66
2023-02-27T09:39:34.066Z,102786.06
2023-02-27T09:42:33.503Z,102818.69
2023-02-27T09:45:30.193Z,102816.75
2023-02-27T09:48:37.042Z,102814.09
2023-02-27T09:51:22.935Z,102808.81
2023-02-27T09:54:08.026Z,102781.22
2023-02-27T09:56:59.411Z,102814.59
2023-02-27T09:59:50.634Z,102811.91
2023-02-27T10:03:08.735Z,102796.38
2023-02-27T10:05:59.773Z,102815.22
2023-02-27T10:09:09.675Z,102822.03
2023-02-27T10:12:07.425Z,102816.72
2023-02-27T10:15:03.046Z,102790.81
2023-02-27T10:17:53.249Z,102812.25
2023-02-27T10:20:43.783Z,102813.81
2023-02-27T10:23:46.226Z,102797.28
2023-02-27T10:26:37.314Z,102799.72
2023-02-27T10:29:42.379Z,102813.38
2023-02-27T10:32:35.432Z,102783.03
2023-02-27T10:35:29.051Z,102808.84
2023-02-27T10:38:23.342Z,102809.06
2023-02-27T10:41:12.899Z,102813.63
2023-02-27T10:43:59.905Z,102815.50
2023-02-27T10:46:45.852Z,102808.59
2023-02-27T10:49:32.619Z,102821.59
2023-02-27T10:52:18.463Z,102816.44
2023-02-27T10:55:22.102Z,102798.25
2023-02-27T10:58:07.464Z,102821.94
2023-02-27T11:01:01.596Z,102818.41
2023-02-27T11:03:46.633Z,102815.94
2023-02-27T11:06:32.582Z,102828.22
2023-02-27T11:09:24.376Z,102829.16
2023-02-27T11:12:18.831Z,102825.63
2023-02-27T11:15:23.702Z,102809.41
2023-02-27T11:18:29.446Z,102823.03
2023-02-27T11:21:18.102Z,102834.19
2023-02-27T11:24:20.497Z,102827.72
2023-02-27T11:27:26.511Z,102825.59
2023-02-27T11:30:23.093Z,102803.91
2023-02-27T11:33:18.340Z,102829.75
2023-02-27T11:36:04.342Z,102811.94
2023-02-27T11:38:56.682Z,102823.25
2023-02-27T11:41:44.876Z,102813.97
2023-02-27T11:44:50.521Z,102830.28
2023-02-27T11:47:38.923Z,102816.34
2023-02-27T11:50:34.276Z,102798.38
2023-02-27T11:53:42.041Z,102808.81
2023-02-27T11:56:36.070Z,102803.25
2023-02-27T11:59:36.718Z,102816.88
2023-02-27T12:02:47.594Z,102809.00
2023-02-27T12:05:49.157Z,102822.41
2023-02-27T12:08:49.364Z,102811.31
2023-02-27T12:11:46.794Z,102817.38
2023-02-27T12:14:50.934Z,102817.34
2023-02-27T12:17:45.827Z,102820.69
2023-02-27T12:20:39.107Z,102810.03
2023-02-27T12:23:33.938Z,102797.66
2023-02-27T12:26:31.837Z,102791.28
2023-02-27T12:29:31.915Z,102802.03
2023-02-27T12:32:25.821Z,102779.25
2023-02-27T12:35:24.166Z,102793.44
2023-02-27T12:38:14.907Z,102795.03
2023-02-27T12:41:27.568Z,102790.38
2023-02-27T12:44:29.168Z,102806.66
2023-02-27T12:47:43.899Z,102798.66
2023-02-27T12:50:43.671Z,102786.28
2023-02-27T12:53:53.844Z,102788.41
2023-02-27T12:56:52.226Z,102788.22
2023-02-27T12:59:50.031Z,102797.69
2023-02-27T13:02:49.757Z,102777.59
2023-02-27T13:05:44.610Z,102789.09
2023-02-27T13:08:57.761Z,102780.78
2023-02-27T13:12:09.059Z,102763.84
2023-02-27T13:15:14.664Z,102762.81
2023-02-27T13:18:09.109Z,102754.00
2023-02-27T13:20:59.950Z,102758.34
2023-02-27T13:23:55.621Z,102750.75
2023-02-27T13:26:49.958Z,102756.22
2023-02-27T13:29:47.574Z,102749.34
2023-02-27T13:32:44.351Z,102750.88
2023-02-27T13:35:48.427Z,102746.50
2023-02-27T13:38:46.042Z,102749.22
2023-02-27T13:41:38.134Z,102718.78
2023-02-27T13:44:23.166Z,102732.13
2023-02-27T13:47:29.793Z,102735.41
2023-02-27T13:50:17.688Z,102739.81
2023-02-27T13:53:10.826Z,102745.97
2023-02-27T13:56:23.811Z,102743.38
2023-02-27T13:59:21.321Z,102737.72
2023-02-27T14:02:57.852Z,102753.16
2023-02-27T14:05:46.661Z,102748.75
2023-02-27T14:08:48.176Z,102749.25
2023-02-27T14:11:39.931Z,102757.16
2023-02-27T14:14:45.469Z,102754.72
2023-02-27T14:17:41.209Z,102764.56
2023-02-27T14:20:30.543Z,102766.84
2023-02-27T14:23:15.892Z,102768.84
2023-02-27T14:26:20.513Z,102768.09
2023-02-27T14:29:06.100Z,102752.25
2023-02-27T14:31:51.968Z,102757.63
2023-02-27T14:34:40.640Z,102744.28
2023-02-27T14:37:27.484Z,102745.69
2023-02-27T14:40:30.362Z,102750.72
2023-02-27T14:43:43.168Z,102732.84
2023-02-27T14:46:30.842Z,102744.03
2023-02-27T14:49:31.393Z,102741.47
2023-02-27T14:52:31.323Z,102733.03
2023-02-27T14:55:29.976Z,102734.69
2023-02-27T14:58:18.392Z,102735.06
2023-02-27T15:01:07.633Z,102728.28
2023-02-27T15:04:01.783Z,102711.31
2023-02-27T15:06:50.275Z,102732.97
2023-02-27T15:09:44.606Z,102717.44
2023-02-27T15:12:29.675Z,102734.97
2023-02-27T15:15:19.148Z,102735.22
2023-02-27T15:18:13.939Z,102725.03
2023-02-27T15:20:59.365Z,102725.22
2023-02-27T15:23:45.106Z,102727.88
2023-02-27T15:26:35.511Z,102726.22
2023-02-27T15:29:24.216Z,102711.44
2023-02-27T15:32:28.124Z,102722.13
2023-02-27T15:35:20.792Z,102735.25
2023-02-27T15:38:07.462Z,102724.22
2023-02-27T15:40:53.115Z,102723.31
2023-02-27T15:43:38.298Z,102728.34
2023-02-27T15:46:23.553Z,102731.09
2023-02-27T15:49:16.240Z,102728.72
2023-02-27T15:52:13.088Z,102725.41
2023-02-27T15:55:05.345Z,102700.72
2023-02-27T15:58:02.368Z,102728.31
2023-02-27T16:00:50.846Z,102723.19
2023-02-27T16:03:38.998Z,102725.09
2023-02-27T16:06:32.462Z,102700.03
2023-02-27T16:09:23.299Z,102731.06
2023-02-27T16:12:27.771Z,102725.84
2023-02-27T16:15:25.113Z,102729.34
2023-02-27T16:18:09.904Z,102726.84
2023-02-27T16:21:07.960Z,102723.53
2023-02-27T16:23:53.975Z,102732.13
2023-02-27T16:26:40.241Z,102721.69
2023-02-27T16:29:44.193Z,102728.72
2023-02-27T16:32:36.172Z,102709.09
2023-02-27T16:35:23.592Z,102721.00
2023-02-27T16:38:08.712Z,102728.16
2023-02-27T16:40:54.155Z,102714.53
2023-02-27T16:43:39.173Z,102719.66
2023-02-27T16:46:24.454Z,102730.84
2023-02-27T16:49:20.369Z,102731.69
2023-02-27T16:52:09.067Z,102712.94
2023-02-27T16:54:54.111Z,102738.91
2023-02-27T16:57:39.309Z,102732.09
2023-02-27T17:00:24.527Z,102731.06
2023-02-27T17:03:09.755Z,102721.72
2023-02-27T17:05:55.226Z,102740.75
2023-02-27T17:08:45.681Z,102738.19
2023-02-27T17:11:30.644Z,102742.47
2023-02-27T17:14:16.318Z,102743.47
2023-02-27T17:17:01.484Z,102739.09
2023-02-27T17:19:46.741Z,102736.50
2023-02-27T17:22:35.154Z,102744.44
2023-02-27T17:25:20.407Z,102752.28
2023-02-27T17:28:05.738Z,102760.16
2023-02-27T17:30:51.419Z,102763.66
2023-02-27T17:33:36.805Z,102770.66
2023-02-27T17:36:23.255Z,102758.59
2023-02-27T17:39:11.291Z,102762.19
2023-02-27T17:41:56.253Z,102771.72
2023-02-27T17:44:42.515Z,102771.78
2023-02-27T17:47:28.801Z,102773.63
2023-02-27T17:50:14.233Z,102777.94
2023-02-27T17:52:59.389Z,102776.38
2023-02-27T17:55:44.608Z,102779.03
2023-02-27T17:58:29.873Z,102768.69
2023-02-27T18:01:21.629Z,102780.91
2023-02-27T18:04:08.038Z,102788.66
2023-02-27T18:06:53.452Z,102782.72
2023-02-27T18:09:38.553Z,102790.47
2023-02-27T18:12:25.393Z,102800.03
2023-02-27T18:15:11.100Z,102791.44
2023-02-27T18:17:55.852Z,102795.81
2023-02-27T18:20:41.193Z,102806.22
2023-02-27T18:23:26.368Z,102801.06
2023-02-27T18:26:32.763Z,102806.28
2023-02-27T18:29:18.550Z,102819.22
2023-02-27T18:32:03.895Z,102814.88
2023-02-27T18:34:49.122Z,102817.47
2023-02-27T18:37:34.907Z,102816.66
2023-02-27T18:40:24.465Z,102819.25
2023-02-27T18:43:11.337Z,102797.66
2023-02-27T18:45:56.880Z,102813.19
2023-02-27T18:48:44.634Z,102821.00
2023-02-27T18:51:30.319Z,102814.94
2023-02-27T18:54:16.016Z,102811.41
2023-02-27T18:57:01.209Z,102816.63
2023-02-27T18:59:47.476Z,102808.06
2023-02-27T19:02:33.209Z,102812.34
2023-02-27T19:05:18.737Z,102809.75
2023-02-27T19:08:03.668Z,102821.81
2023-02-27T19:10:48.782Z,102816.69
2023-02-27T19:13:33.705Z,102809.75
2023-02-27T19:16:19.242Z,102802.91
2023-02-27T19:19:05.050Z,102824.41
2023-02-27T19:21:50.321Z,102791.75
2023-02-27T19:24:35.497Z,102820.91
2023-02-27T19:27:21.051Z,102825.22
2023-02-27T19:30:08.213Z,102827.81
2023-02-27T19:32:53.825Z,102832.16
2023-02-27T19:35:39.213Z,102815.72
2023-02-27T19:38:24.740Z,102819.13
2023-02-27T19:41:13.679Z,102828.59
2023-02-27T19:43:58.500Z,102826.06
2023-02-27T19:46:47.223Z,102832.94
2023-02-27T19:49:32.285Z,102835.47
2023-02-27T19:52:17.621Z,102828.72
2023-02-27T19:55:02.574Z,102830.38
2023-02-27T19:57:47.803Z,102836.38
2023-02-27T20:00:33.226Z,102837.22
2023-02-27T20:03:18.427Z,102852.81
2023-02-27T20:06:06.387Z,102845.91
2023-02-27T20:08:52.617Z,102854.56
2023-02-27T20:11:38.043Z,102846.75
2023-02-27T20:14:23.770Z,102854.53
2023-02-27T20:17:08.762Z,102858.81
2023-02-27T20:19:54.046Z,102856.22
2023-02-27T20:22:42.225Z,102857.97
2023-02-27T20:25:29.434Z,102863.16
2023-02-27T20:28:14.619Z,102857.97
2023-02-27T20:30:59.890Z,102857.94
2023-02-27T20:33:45.202Z,102853.59
2023-02-27T20:36:30.600Z,102863.09
2023-02-27T20:39:15.716Z,102863.94
2023-02-27T20:42:00.823Z,102863.94
2023-02-27T20:44:48.356Z,102865.66
2023-02-27T20:47:33.441Z,102867.38
2023-02-27T20:50:18.795Z,102868.25
2023-02-27T20:53:04.114Z,102870.78
2023-02-27T20:55:49.767Z,102869.91
2023-02-27T20:58:35.415Z,102876.88
2023-02-27T21:01:21.519Z,102866.50
2023-02-27T21:04:06.793Z,102866.50
2023-02-27T21:06:52.161Z,102872.53
2023-02-27T21:09:38.050Z,102855.28
2023-02-27T21:12:22.999Z,102865.59
2023-02-27T21:15:08.717Z,102874.25
2023-02-27T21:17:53.745Z,102874.25
2023-02-27T21:20:41.191Z,102863.97
2023-02-27T21:23:26.269Z,102882.03
2023-02-27T21:26:19.649Z,102876.00
2023-02-27T21:29:19.574Z,102870.97
2023-02-27T21:32:04.990Z,102890.78
2023-02-27T21:34:50.479Z,102895.16
2023-02-27T21:37:35.547Z,102876.25
2023-02-27T21:40:20.928Z,102890.81
2023-02-27T21:43:06.224Z,102901.19
2023-02-27T21:45:52.071Z,102866.66
2023-02-27T21:48:37.802Z,102877.00
2023-02-27T21:51:38.393Z,102876.25
2023-02-27T21:54:24.692Z,102882.19
2023-02-27T21:57:10.530Z,102898.53
2023-02-27T21:59:55.718Z,102897.72
2023-02-27T22:02:40.693Z,102902.88
2023-02-27T22:05:26.104Z,102856.41
2023-02-27T22:08:11.665Z,102901.22
2023-02-27T22:10:58.567Z,102886.56
2023-02-27T22:13:43.563Z,102886.56
2023-02-27T22:16:28.606Z,102886.56
2023-02-27T22:19:19.667Z,102883.06
2023-02-27T22:22:05.270Z,102877.97
2023-02-27T22:24:50.499Z,102877.09
2023-02-27T22:27:35.426Z,102880.53
2023-02-27T22:30:20.554Z,102875.41
2023-02-27T22:33:05.993Z,102877.19
2023-02-27T22:35:51.175Z,102856.56
2023-02-27T22:38:36.358Z,102869.47
2023-02-27T22:41:27.964Z,102873.75
2023-02-27T22:44:15.003Z,102874.66
2023-02-27T22:47:00.270Z,102878.16
2023-02-27T22:49:45.189Z,102855.75
2023-02-27T22:52:30.394Z,102869.50
2023-02-27T22:55:15.434Z,102872.09
2023-02-27T22:58:00.736Z,102868.59
2023-02-27T23:00:45.761Z,102879.03
2023-02-27T23:03:30.779Z,102867.91
2023-02-27T23:06:19.273Z,102876.50
2023-02-27T23:09:07.122Z,102882.56
2023-02-27T23:11:52.562Z,102877.41
2023-02-27T23:14:37.906Z,102866.97
2023-02-27T23:17:22.772Z,102877.38
2023-02-27T23:20:08.312Z,102872.19
2023-02-27T23:22:53.729Z,102879.06
2023-02-27T23:25:39.026Z,102886.00
2023-02-27T23:28:24.186Z,102884.31
2023-02-27T23:31:09.708Z,102884.31
2023-02-27T23:33:54.945Z,102881.69
2023-02-27T23:36:40.835Z,102872.25
2023-02-27T23:39:25.978Z,102878.28
2023-02-27T23:42:29.717Z,102865.41
2023-02-27T23:45:23.805Z,102861.91
2023-02-27T23:48:09.156Z,102879.16
2023-02-27T23:50:58.085Z,102865.41
2023-02-27T23:53:43.352Z,102883.50
2023-02-27T23:56:30.619Z,102880.84
2023-02-27T23:59:15.534Z,102874.78
